Time;durP1;ratioP1;P1;durP2;ratioP2;P2;SDS_P1;SDS_P2;PMS_P1;PMS_P2;Temp;Humidity;BMP_temperature;BMP_pressure;BME280_temperature;BME280_humidity;BME280_pressure;Samples;Min_cycle;Max_cycle;Signal;HPM_P1;HPM_P2
2021/12/05 00:22:16;;;;;;;2.35;1.10;;;5.90;99.90;;;;;;4967467;28;20054;-74
2021/12/05 00:24:46;;;;;;;4.45;1.65;;;5.90;99.90;;;;;;4967905;28;20154;-74
2021/12/05 00:27:19;;;;;;;2.33;0.95;;;5.80;99.90;;;;;;4967360;28;20031;-74
2021/12/05 00:32:54;;;;;;;5.32;1.80;;;5.80;99.90;;;;;;4991303;28;20060;-74
2021/12/05 00:48:50;;;;;;;5.10;1.60;;;5.70;99.90;;;;;;5028532;28;20025;-74
2021/12/05 01:14:35;;;;;;;1.80;0.77;;;5.70;99.90;;;;;;5027806;28;20045;-74
2021/12/05 01:17:03;;;;;;;3.15;1.75;;;5.70;99.90;;;;;;5030647;28;20076;-75
2021/12/05 01:19:31;;;;;;;5.30;2.33;;;5.70;99.90;;;;;;5011621;28;20036;-74
2021/12/05 01:22:04;;;;;;;6.93;1.92;;;5.70;99.90;;;;;;5029025;28;20025;-74
2021/12/05 01:30:00;;;;;;;6.30;2.33;;;5.70;99.90;;;;;;5027503;28;20423;-75
2021/12/05 01:32:51;;;;;;;4.88;1.63;;;5.70;99.90;;;;;;5028827;28;20107;-74
2021/12/05 01:38:09;;;;;;;9.52;2.25;;;5.70;99.90;;;;;;5016428;28;20119;-74
2021/12/05 02:31:44;;;;;;;2.22;0.90;;;5.20;99.90;;;;;;5027821;28;20044;-74
2021/12/05 02:42:37;;;;;;;1.45;0.30;;;5.10;99.90;;;;;;4985852;28;20109;-74
2021/12/05 02:45:06;;;;;;;2.10;0.30;;;5.10;99.90;;;;;;4986154;28;20077;-74
2021/12/05 02:47:34;;;;;;;1.50;0.43;;;5.10;99.90;;;;;;4986222;28;20030;-74
2021/12/05 02:50:04;;;;;;;1.08;0.40;;;5.00;99.90;;;;;;4987494;28;20137;-74
2021/12/05 02:52:33;;;;;;;0.85;0.50;;;5.10;99.90;;;;;;4986303;28;20058;-74
2021/12/05 02:55:30;;;;;;;0.30;0.30;;;5.00;99.90;;;;;;4989152;28;20112;-74
2021/12/05 02:58:00;;;;;;;0.65;0.40;;;5.00;99.90;;;;;;4989303;28;20177;-74
2021/12/05 03:00:45;;;;;;;0.85;0.30;;;5.00;99.90;;;;;;4989105;28;20062;-74
2021/12/05 03:03:19;;;;;;;0.88;0.50;;;5.10;99.90;;;;;;4989022;28;20084;-74
2021/12/05 03:05:52;;;;;;;1.05;0.50;;;5.00;99.90;;;;;;4989144;28;20066;-74
2021/12/05 03:08:18;;;;;;;3.78;0.70;;;5.10;99.90;;;;;;4999401;28;20034;-74
2021/12/05 03:10:44;;;;;;;1.30;0.60;;;5.10;99.90;;;;;;4990754;28;20125;-74
2021/12/05 03:13:09;;;;;;;1.00;0.60;;;5.10;99.90;;;;;;4989078;28;20030;-74
2021/12/05 03:15:35;;;;;;;0.80;0.50;;;5.10;99.90;;;;;;4988983;28;20542;-74
2021/12/05 03:18:01;;;;;;;1.83;1.02;;;5.10;99.90;;;;;;5011920;28;20036;-74
2021/12/05 03:20:27;;;;;;;2.05;0.50;;;5.10;99.90;;;;;;5013285;28;20116;-74
2021/12/05 03:22:53;;;;;;;0.68;0.50;;;5.10;99.90;;;;;;5032036;28;20048;-74
2021/12/05 03:25:21;;;;;;;0.60;0.60;;;5.10;99.90;;;;;;5030588;28;20017;-74
2021/12/05 03:27:47;;;;;;;1.00;0.77;;;5.10;99.90;;;;;;5030334;28;20124;-74
2021/12/05 03:30:19;;;;;;;0.98;0.50;;;5.10;99.90;;;;;;5030610;28;20025;-74
2021/12/05 03:32:48;;;;;;;2.40;0.70;;;5.10;99.90;;;;;;5030513;28;20049;-75
2021/12/05 03:35:13;;;;;;;0.30;0.30;;;5.10;99.90;;;;;;5030500;28;20021;-75
2021/12/05 03:37:39;;;;;;;3.00;0.40;;;5.10;99.90;;;;;;5031323;28;20040;-75
2021/12/05 03:40:07;;;;;;;3.03;0.70;;;5.00;99.90;;;;;;5030379;28;20045;-75
2021/12/05 03:42:33;;;;;;;2.22;1.00;;;5.00;99.90;;;;;;5030186;28;20021;-74
2021/12/05 03:44:59;;;;;;;1.70;1.00;;;5.00;99.90;;;;;;5030227;28;20113;-74
2021/12/05 03:47:28;;;;;;;2.38;1.35;;;5.00;99.90;;;;;;5030351;28;20060;-74
2021/12/05 03:49:54;;;;;;;2.15;1.08;;;5.00;99.90;;;;;;5031594;28;20024;-74
2021/12/05 03:52:21;;;;;;;3.17;1.35;;;5.00;99.90;;;;;;5030281;28;20030;-74
2021/12/05 03:54:47;;;;;;;3.55;1.75;;;5.00;99.90;;;;;;5029652;28;20087;-74
2021/12/05 03:57:13;;;;;;;2.67;1.73;;;5.10;99.90;;;;;;5029973;28;20025;-74
2021/12/05 03:59:39;;;;;;;5.22;2.40;;;5.10;99.90;;;;;;5029824;28;20018;-74
2021/12/05 04:02:07;;;;;;;5.25;2.50;;;5.10;99.90;;;;;;5031748;28;20029;-74
2021/12/05 04:04:33;;;;;;;5.88;2.60;;;5.00;99.90;;;;;;5030360;28;20029;-74
2021/12/05 04:06:59;;;;;;;4.60;2.42;;;5.10;99.90;;;;;;5029593;28;20036;-74
2021/12/05 04:09:25;;;;;;;4.43;1.70;;;5.00;99.90;;;;;;5029594;28;20111;-74
2021/12/05 04:12:00;;;;;;;3.25;1.70;;;5.00;99.90;;;;;;5029826;28;20566;-74
2021/12/05 04:14:30;;;;;;;4.35;1.33;;;5.00;99.90;;;;;;5029270;28;20038;-75
2021/12/05 04:16:56;;;;;;;3.42;0.93;;;5.00;99.90;;;;;;5013640;28;20116;-75
2021/12/05 04:19:22;;;;;;;2.10;1.00;;;5.00;99.90;;;;;;5029174;28;20108;-75
2021/12/05 04:21:49;;;;;;;1.20;0.75;;;5.00;99.90;;;;;;5029651;28;20029;-75
2021/12/05 04:24:15;;;;;;;2.28;1.13;;;5.00;99.90;;;;;;5025590;28;20030;-74
2021/12/05 04:26:41;;;;;;;1.00;0.70;;;5.00;99.90;;;;;;5028931;28;20061;-75
2021/12/05 04:29:08;;;;;;;0.90;0.60;;;5.10;99.90;;;;;;5027165;28;20029;-75
2021/12/05 04:31:35;;;;;;;1.85;1.00;;;5.10;99.90;;;;;;5028095;28;20410;-75
2021/12/05 04:34:02;;;;;;;2.33;1.50;;;5.00;99.90;;;;;;5025117;28;20022;-75
2021/12/05 04:36:27;;;;;;;3.88;1.58;;;5.10;99.90;;;;;;5029605;28;20060;-74
2021/12/05 04:38:53;;;;;;;5.50;1.92;;;5.10;99.90;;;;;;5029334;28;20049;-75
2021/12/05 04:41:19;;;;;;;3.92;1.55;;;5.00;99.90;;;;;;5030153;28;20029;-75
2021/12/05 04:43:46;;;;;;;1.90;1.15;;;5.00;99.90;;;;;;5028409;28;20061;-75
2021/12/05 04:46:15;;;;;;;4.00;1.17;;;5.00;99.90;;;;;;5011239;28;20074;-75
2021/12/05 04:48:43;;;;;;;4.60;1.05;;;5.00;99.90;;;;;;5029294;28;20151;-74
2021/12/05 04:51:09;;;;;;;1.80;0.73;;;5.00;99.90;;;;;;5029785;28;20029;-74
2021/12/05 04:53:35;;;;;;;1.42;0.55;;;5.00;99.90;;;;;;5027640;28;20403;-74
2021/12/05 04:56:01;;;;;;;2.08;0.50;;;5.00;99.90;;;;;;5030865;28;20029;-75
2021/12/05 04:58:27;;;;;;;1.30;0.60;;;5.00;99.90;;;;;;5029014;28;20026;-74
2021/12/05 05:00:57;;;;;;;0.43;0.43;;;5.00;99.90;;;;;;5022343;28;20041;-75
2021/12/05 05:03:24;;;;;;;2.67;0.63;;;5.00;99.90;;;;;;5014246;28;20097;-74
2021/12/05 05:05:56;;;;;;;1.50;0.60;;;5.00;99.90;;;;;;5027145;28;20044;-75
2021/12/05 05:08:22;;;;;;;1.23;0.60;;;5.10;99.90;;;;;;5029287;28;20029;-75
2021/12/05 05:10:48;;;;;;;2.25;0.70;;;5.20;99.90;;;;;;5030578;28;20519;-75
2021/12/05 05:13:14;;;;;;;1.15;0.50;;;5.20;99.90;;;;;;5023710;28;20166;-75
2021/12/05 05:15:40;;;;;;;1.13;0.60;;;5.30;99.90;;;;;;5026502;28;20046;-74
2021/12/05 05:18:08;;;;;;;2.75;0.57;;;5.30;99.90;;;;;;5027694;28;20027;-74
2021/12/05 05:20:49;;;;;;;1.60;0.77;;;5.40;99.90;;;;;;5027208;28;20025;-74
2021/12/05 05:28:56;;;;;;;2.47;0.60;;;5.60;99.90;;;;;;5028689;28;20033;-74
2021/12/05 05:45:20;;;;;;;0.30;0.30;;;5.30;99.90;;;;;;4987048;28;20524;-74
2021/12/05 05:50:12;;;;;;;0.30;0.30;;;5.20;99.90;;;;;;4987426;28;20042;-75
2021/12/05 05:52:38;;;;;;;0.90;0.28;;;5.30;99.90;;;;;;4987847;28;20038;-74
2021/12/05 05:55:04;;;;;;;0.47;0.47;;;5.20;99.90;;;;;;4986758;28;20169;-74
2021/12/05 05:58:02;;;;;;;0.52;0.30;;;5.20;99.90;;;;;;4986541;28;20031;-75
2021/12/05 06:00:38;;;;;;;0.30;0.30;;;5.10;99.90;;;;;;4986592;28;20022;-74
2021/12/05 06:03:22;;;;;;;2.47;0.30;;;5.00;99.90;;;;;;4987526;28;20030;-75
2021/12/05 06:06:07;;;;;;;0.30;0.30;;;5.10;99.90;;;;;;4987112;28;20584;-75
2021/12/05 06:08:35;;;;;;;1.20;0.40;;;5.00;99.90;;;;;;4990824;28;20605;-74
2021/12/05 06:11:05;;;;;;;0.30;0.30;;;5.00;99.90;;;;;;5006919;28;20026;-74
2021/12/05 06:13:33;;;;;;;0.40;0.40;;;5.00;99.90;;;;;;5028271;28;20056;-75
2021/12/05 06:15:59;;;;;;;0.65;0.30;;;5.00;99.90;;;;;;5027252;28;20033;-74
2021/12/05 06:18:25;;;;;;;0.52;0.52;;;5.00;99.90;;;;;;5028976;28;20025;-75
2021/12/05 06:20:52;;;;;;;0.50;0.40;;;5.00;99.90;;;;;;5028572;28;20116;-74
2021/12/05 06:23:19;;;;;;;2.47;0.50;;;5.10;99.90;;;;;;5028559;28;20027;-74
2021/12/05 06:25:48;;;;;;;0.50;0.50;;;5.00;99.90;;;;;;5029637;28;20104;-74
2021/12/05 06:28:19;;;;;;;0.50;0.50;;;5.00;99.90;;;;;;5012001;28;20123;-74
2021/12/05 06:30:56;;;;;;;1.02;0.77;;;5.00;99.90;;;;;;5014347;28;20063;-74
2021/12/05 06:47:14;;;;;;;2.85;1.08;;;5.00;99.90;;;;;;4994859;28;19912;-75
2021/12/05 06:49:42;;;;;;;0.40;0.40;;;4.90;99.90;;;;;;5009015;28;20121;-75
2021/12/05 06:52:08;;;;;;;0.30;0.30;;;4.80;99.90;;;;;;5003865;28;20046;-75
2021/12/05 06:54:36;;;;;;;0.52;0.35;;;4.80;99.90;;;;;;5004524;28;20053;-74
2021/12/05 06:57:02;;;;;;;0.40;0.40;;;4.80;99.90;;;;;;5007197;28;20139;-74
2021/12/05 06:59:28;;;;;;;0.30;0.30;;;4.70;99.90;;;;;;5009774;28;20514;-75
2021/12/05 07:01:53;;;;;;;0.45;0.30;;;4.70;99.90;;;;;;5010585;28;20104;-74
2021/12/05 07:06:47;;;;;;;0.85;0.50;;;4.70;99.90;;;;;;5000361;28;20423;-75
2021/12/05 07:09:13;;;;;;;0.57;0.40;;;4.60;99.90;;;;;;4994996;28;20026;-75
2021/12/05 07:21:59;;;;;;;0.50;0.50;;;4.50;99.90;;;;;;5030592;28;20041;-75
2021/12/05 07:24:44;;;;;;;1.50;0.55;;;4.50;99.90;;;;;;5030888;28;20026;-75
2021/12/05 07:40:52;;;;;;;0.57;0.57;;;4.40;99.90;;;;;;5031645;28;20063;-74
2021/12/05 07:43:18;;;;;;;4.80;0.73;;;4.50;99.90;;;;;;5030494;28;20477;-75
2021/12/05 07:45:57;;;;;;;1.42;0.70;;;4.50;99.90;;;;;;5012378;28;20084;-75
2021/12/05 07:48:31;;;;;;;0.77;0.50;;;4.50;99.90;;;;;;5030313;28;20052;-74
2021/12/05 07:51:21;;;;;;;0.35;0.35;;;4.50;99.90;;;;;;5029929;28;20056;-75
2021/12/05 07:54:07;;;;;;;1.02;0.50;;;4.50;99.90;;;;;;5030082;28;20045;-75
2021/12/05 08:16:02;;;;;;;1.92;0.60;;;4.70;99.90;;;;;;5027130;28;20045;-74
2021/12/05 08:18:29;;;;;;;1.65;0.50;;;4.70;99.90;;;;;;5009844;28;20059;-74
2021/12/05 08:20:56;;;;;;;2.55;0.75;;;4.70;99.90;;;;;;5026752;28;20024;-74
2021/12/05 08:23:23;;;;;;;1.23;0.47;;;4.80;99.90;;;;;;5010495;28;20064;-74
2021/12/05 08:25:58;;;;;;;3.20;0.70;;;4.80;99.90;;;;;;5010142;28;20050;-74
2021/12/05 08:28:48;;;;;;;2.00;0.60;;;4.80;99.90;;;;;;5009512;28;20123;-75
2021/12/05 08:41:41;;;;;;;1.17;0.60;;;4.80;99.90;;;;;;5027015;28;20032;-75
2021/12/05 10:03:00;;;;;;;5.22;1.00;;;6.00;99.90;;;;;;5001259;28;20060;-74
2021/12/05 10:08:37;;;;;;;3.30;1.27;;;5.90;99.90;;;;;;4988791;28;20093;-74
2021/12/05 10:13:54;;;;;;;3.13;1.58;;;6.00;99.90;;;;;;5002079;28;20042;-74
2021/12/05 10:16:52;;;;;;;5.63;1.50;;;6.10;99.90;;;;;;5005087;28;20030;-74
2021/12/05 10:38:30;;;;;;;5.13;3.00;;;5.90;99.90;;;;;;4986748;28;23370;-74
2021/12/05 10:41:19;;;;;;;8.35;2.83;;;5.90;99.90;;;;;;4986953;28;20086;-74
2021/12/05 10:43:48;;;;;;;6.72;2.70;;;6.00;99.90;;;;;;5004953;28;20511;-74
2021/12/05 10:46:17;;;;;;;8.93;3.75;;;6.00;99.90;;;;;;4987507;28;20136;-74
2021/12/05 10:48:52;;;;;;;5.70;2.40;;;6.10;99.90;;;;;;4987110;28;20064;-75
2021/12/05 10:51:43;;;;;;;8.25;3.30;;;6.20;99.90;;;;;;4987942;28;20042;-74
2021/12/05 10:54:18;;;;;;;6.95;2.53;;;6.30;99.90;;;;;;4987183;28;20042;-75
2021/12/05 10:56:52;;;;;;;4.93;2.05;;;6.30;99.90;;;;;;4987392;28;20117;-74
2021/12/05 10:59:21;;;;;;;4.82;2.42;;;6.30;99.90;;;;;;4987564;28;20097;-75
2021/12/05 11:01:54;;;;;;;5.07;1.83;;;6.20;99.90;;;;;;4988700;28;20041;-75
2021/12/05 11:04:27;;;;;;;3.20;1.65;;;6.20;99.90;;;;;;4995613;28;20041;-75
2021/12/05 11:07:01;;;;;;;4.72;1.52;;;6.20;99.90;;;;;;5010846;28;20102;-74
2021/12/05 11:09:33;;;;;;;5.88;1.80;;;6.10;99.90;;;;;;5028313;28;20279;-76
2021/12/05 11:12:05;;;;;;;3.97;1.80;;;6.20;99.90;;;;;;5028762;28;20132;-75
2021/12/05 11:14:37;;;;;;;3.35;1.48;;;6.30;99.90;;;;;;5010254;28;20037;-75
2021/12/05 11:17:04;;;;;;;2.70;1.23;;;6.40;99.90;;;;;;5030444;28;20034;-75
2021/12/05 11:19:36;;;;;;;1.80;1.15;;;6.30;99.90;;;;;;5027789;28;20045;-75
2021/12/05 11:22:10;;;;;;;2.65;1.10;;;6.50;99.90;;;;;;5024660;28;20061;-75
2021/12/05 11:24:41;;;;;;;4.03;1.20;;;6.60;99.90;;;;;;5026450;28;20142;-75
2021/12/05 11:27:12;;;;;;;2.15;1.60;;;6.70;99.90;;;;;;5027120;28;20032;-75
2021/12/05 11:29:46;;;;;;;1.80;1.17;;;6.70;99.90;;;;;;5028976;28;20108;-76
2021/12/05 11:32:33;;;;;;;5.68;1.25;;;6.60;99.90;;;;;;5013209;28;20057;-75
2021/12/05 11:35:44;;;;;;;2.45;1.58;;;6.40;99.90;;;;;;5029411;28;20330;-76
2021/12/05 11:38:17;;;;;;;3.78;1.27;;;6.40;99.90;;;;;;4964057;28;20027;-75
2021/12/05 11:40:46;;;;;;;3.45;1.08;;;6.20;99.90;;;;;;4968223;28;20046;-76
2021/12/05 11:43:16;;;;;;;1.33;0.77;;;6.10;99.90;;;;;;4950363;28;20033;-76
2021/12/05 11:46:14;;;;;;;2.22;0.98;;;6.20;99.90;;;;;;4967025;28;20078;-75
2021/12/05 11:48:45;;;;;;;5.25;1.58;;;6.70;99.90;;;;;;4959758;28;20039;-75
2021/12/05 11:51:34;;;;;;;2.40;1.00;;;6.80;99.90;;;;;;4966362;28;20097;-75
2021/12/05 11:54:08;;;;;;;4.03;1.30;;;6.80;99.90;;;;;;4965491;28;20065;-74
2021/12/05 11:56:34;;;;;;;2.03;0.80;;;7.20;99.90;;;;;;4966093;28;20068;-75
2021/12/05 11:59:07;;;;;;;1.83;1.35;;;7.30;99.90;;;;;;4967632;28;20519;-75
2021/12/05 12:01:35;;;;;;;3.95;0.90;;;7.30;99.90;;;;;;4966479;28;20061;-74
2021/12/05 12:04:01;;;;;;;2.65;1.02;;;7.40;99.90;;;;;;4966297;28;20121;-75
2021/12/05 12:06:26;;;;;;;3.78;0.80;;;7.40;99.90;;;;;;4966347;28;20386;-76
2021/12/05 12:08:54;;;;;;;2.85;0.80;;;7.40;99.90;;;;;;4966446;28;20397;-76
2021/12/05 12:11:20;;;;;;;2.38;0.80;;;7.60;99.90;;;;;;4966810;28;20106;-75
2021/12/05 12:13:47;;;;;;;3.88;1.13;;;7.30;99.90;;;;;;4991178;28;20077;-75
2021/12/05 12:16:13;;;;;;;2.08;0.70;;;7.60;99.90;;;;;;5009763;28;20075;-74
2021/12/05 12:18:43;;;;;;;1.52;0.80;;;8.00;99.90;;;;;;5009244;28;20055;-74
2021/12/05 12:21:13;;;;;;;3.78;1.25;;;7.80;99.90;;;;;;5027794;28;20112;-75
2021/12/05 12:23:39;;;;;;;3.53;1.00;;;7.50;99.90;;;;;;5009424;28;20099;-74
2021/12/05 12:26:07;;;;;;;4.28;0.70;;;7.40;99.90;;;;;;5028360;28;20057;-74
2021/12/05 12:28:33;;;;;;;1.65;1.00;;;7.40;99.90;;;;;;5027844;28;20033;-74
2021/12/05 12:31:12;;;;;;;1.98;0.80;;;7.20;99.90;;;;;;5026854;28;20176;-74
2021/12/05 12:33:51;;;;;;;9.30;2.13;;;7.30;99.90;;;;;;5008817;28;20075;-74
2021/12/05 12:36:50;;;;;;;3.28;1.25;;;7.50;99.90;;;;;;5027144;28;20021;-74
2021/12/05 12:39:15;;;;;;;5.43;1.75;;;7.60;99.90;;;;;;5026553;28;20611;-74
2021/12/05 12:41:42;;;;;;;3.10;1.25;;;7.60;99.90;;;;;;5027882;28;20025;-74
2021/12/05 12:44:08;;;;;;;5.15;1.25;;;7.60;99.90;;;;;;5010523;28;20045;-74
2021/12/05 12:46:38;;;;;;;3.95;1.10;;;7.40;99.90;;;;;;5028102;28;20495;-74
2021/12/05 12:49:16;;;;;;;2.58;1.08;;;7.30;99.90;;;;;;5027765;28;20154;-74
2021/12/05 12:51:59;;;;;;;2.58;1.00;;;7.30;99.90;;;;;;5027635;28;20029;-74
2021/12/05 12:54:36;;;;;;;6.30;1.55;;;7.20;99.90;;;;;;5026815;28;20025;-74
2021/12/05 12:57:14;;;;;;;2.50;1.00;;;7.10;99.90;;;;;;5009858;28;20235;-74
2021/12/05 13:00:06;;;;;;;6.13;1.23;;;7.10;99.90;;;;;;5027645;28;20083;-74
2021/12/05 13:02:59;;;;;;;2.78;0.80;;;7.20;99.90;;;;;;5026811;28;20072;-74
2021/12/05 13:11:09;;;;;;;4.78;1.20;;;7.30;99.90;;;;;;5028954;28;20044;-75
2021/12/05 13:13:37;;;;;;;5.22;1.48;;;7.50;99.90;;;;;;5027620;28;20033;-75
2021/12/05 13:16:27;;;;;;;3.40;1.33;;;7.60;99.90;;;;;;5026602;28;20033;-74
2021/12/05 13:19:13;;;;;;;2.13;0.77;;;7.70;99.90;;;;;;5026666;28;20024;-74
2021/12/05 13:21:42;;;;;;;3.40;1.35;;;7.70;99.90;;;;;;5024472;28;20025;-74
2021/12/05 13:24:32;;;;;;;1.77;0.60;;;7.40;99.90;;;;;;5027022;28;20064;-74
2021/12/05 13:27:03;;;;;;;2.25;0.80;;;7.40;99.90;;;;;;5027493;28;20029;-74
2021/12/05 13:29:38;;;;;;;2.13;0.73;;;7.40;99.90;;;;;;5009296;28;20033;-75
2021/12/05 13:32:12;;;;;;;1.90;1.05;;;7.20;99.90;;;;;;5021213;28;20041;-75
2021/12/05 13:34:40;;;;;;;1.92;0.60;;;7.20;99.90;;;;;;5027629;28;20083;-74
2021/12/05 13:37:06;;;;;;;2.92;0.82;;;7.10;99.90;;;;;;5024225;28;20025;-74
2021/12/05 13:39:54;;;;;;;2.28;0.52;;;7.10;99.90;;;;;;5026343;28;20502;-75
2021/12/05 13:42:28;;;;;;;4.68;1.00;;;7.10;99.90;;;;;;5026174;28;20021;-74
2021/12/05 13:45:14;;;;;;;2.15;0.70;;;6.90;99.90;;;;;;5024263;28;20037;-74
2021/12/05 13:47:52;;;;;;;6.63;1.63;;;7.00;99.90;;;;;;5025354;28;20040;-74
2021/12/05 13:50:51;;;;;;;3.60;1.35;;;7.20;99.90;;;;;;5025533;28;20116;-75
2021/12/05 13:53:10;;;;;;;;;;;7.10;99.90;;;;;;5023667;28;20054;-74
2021/12/05 13:56:03;;;;;;;1.90;0.77;;;7.00;99.90;;;;;;5027650;28;20397;-75
2021/12/05 13:58:35;;;;;;;2.13;0.68;;;7.10;99.90;;;;;;5020635;28;20055;-74
2021/12/05 14:01:25;;;;;;;4.03;1.00;;;7.40;99.90;;;;;;5022958;28;20033;-73
2021/12/05 14:04:04;;;;;;;3.22;1.50;;;7.50;99.90;;;;;;5022478;28;20049;-74
2021/12/05 14:07:06;;;;;;;3.13;0.82;;;7.50;99.90;;;;;;5007167;28;20030;-74
2021/12/05 14:09:32;;;;;;;1.75;0.70;;;7.30;99.90;;;;;;5025121;28;20036;-74
2021/12/05 14:11:59;;;;;;;2.38;1.63;;;7.20;99.90;;;;;;5005971;28;20030;-74
2021/12/05 14:14:50;;;;;;;4.28;2.20;;;7.40;99.90;;;;;;5024346;28;20026;-73
2021/12/05 14:17:16;;;;;;;3.50;1.80;;;7.70;99.90;;;;;;5025269;28;20117;-74
2021/12/05 14:19:56;;;;;;;3.83;2.28;;;7.80;99.90;;;;;;5027815;28;20112;-74
2021/12/05 14:22:24;;;;;;;4.07;1.30;;;7.60;99.90;;;;;;5008477;28;20033;-74
2021/12/05 14:24:54;;;;;;;6.30;1.80;;;7.40;99.90;;;;;;5025849;28;20280;-74
2021/12/05 14:27:27;;;;;;;5.75;1.30;;;7.30;99.90;;;;;;5026283;28;20491;-74
2021/12/05 14:29:53;;;;;;;3.78;1.10;;;7.20;99.90;;;;;;4999871;28;20052;-74
2021/12/05 14:32:26;;;;;;;3.22;1.88;;;7.20;99.90;;;;;;5025908;28;20037;-74
2021/12/05 14:35:08;;;;;;;4.35;1.80;;;7.10;99.90;;;;;;5027317;28;20230;-74
2021/12/05 14:37:35;;;;;;;;;;;7.10;99.90;;;;;;5037553;28;20034;-74
2021/12/05 14:40:12;;;;;;;4.43;2.67;;;7.10;99.90;;;;;;5025493;28;19905;-74
2021/12/05 14:42:41;;;;;;;13.95;4.22;;;7.10;99.90;;;;;;5007617;28;20021;-73
2021/12/05 14:45:09;;;;;;;4.80;2.25;;;7.10;99.90;;;;;;5025503;28;20162;-74
2021/12/05 14:47:36;;;;;;;5.68;2.40;;;7.10;99.90;;;;;;5025438;28;20574;-73
2021/12/05 14:50:15;;;;;;;7.00;1.58;;;7.00;99.90;;;;;;5030068;28;20041;-79
2021/12/05 14:52:43;;;;;;;3.92;1.73;;;7.00;99.90;;;;;;5030192;28;20086;-75
2021/12/05 14:55:12;;;;;;;3.60;1.77;;;7.00;99.90;;;;;;5028773;28;20033;-74
2021/12/05 14:57:44;;;;;;;6.00;2.28;;;7.00;99.90;;;;;;5027845;28;20021;-74
2021/12/05 15:00:12;;;;;;;10.98;3.10;;;7.00;99.90;;;;;;5028525;28;20040;-74
2021/12/05 15:02:39;;;;;;;7.78;3.42;;;7.00;99.90;;;;;;5028949;28;20022;-76
2021/12/05 15:05:13;;;;;;;11.27;4.22;;;7.00;99.90;;;;;;5030646;28;20033;-75
2021/12/05 15:07:39;;;;;;;14.30;5.25;;;6.90;99.90;;;;;;5028418;28;20872;-74
2021/12/05 15:10:07;;;;;;;7.28;2.95;;;7.00;99.90;;;;;;5027518;28;20108;-74
2021/12/05 15:12:34;;;;;;;13.27;3.40;;;6.90;99.90;;;;;;5027102;28;20467;-74
2021/12/05 15:15:11;;;;;;;6.53;2.47;;;6.90;99.90;;;;;;5027497;28;20053;-74
2021/12/05 15:17:42;;;;;;;12.45;4.47;;;6.90;99.90;;;;;;5025077;28;20025;-74
2021/12/05 15:20:10;;;;;;;;;;;6.90;99.90;;;;;;5029545;28;20083;-74
2021/12/05 15:22:37;;;;;;;6.72;1.60;;;6.90;99.90;;;;;;5011283;28;19909;-74
2021/12/05 15:25:13;;;;;;;3.25;1.73;;;6.80;99.90;;;;;;5028662;28;20033;-74
2021/12/05 15:27:39;;;;;;;3.83;1.63;;;6.80;99.90;;;;;;5025390;28;20030;-74
2021/12/05 15:30:37;;;;;;;5.03;1.70;;;6.70;99.90;;;;;;5010932;28;20026;-74
2021/12/05 15:33:07;;;;;;;3.15;2.00;;;6.70;99.90;;;;;;5025385;28;20033;-74
2021/12/05 15:35:33;;;;;;;4.45;1.90;;;6.60;99.90;;;;;;5009094;28;20029;-74
2021/12/05 15:38:03;;;;;;;5.60;2.45;;;6.70;99.90;;;;;;5028730;28;20557;-74
2021/12/05 15:40:30;;;;;;;2.50;2.10;;;6.80;99.90;;;;;;5026813;28;20046;-74
2021/12/05 15:43:05;;;;;;;9.63;2.40;;;6.90;99.90;;;;;;5027087;28;20025;-74
2021/12/05 15:45:31;;;;;;;4.97;1.52;;;6.80;99.90;;;;;;5026451;28;20046;-74
2021/12/05 15:47:57;;;;;;;3.05;2.03;;;6.80;99.90;;;;;;5028448;28;20029;-74
2021/12/05 15:50:25;;;;;;;7.00;3.05;;;6.70;99.90;;;;;;5026937;28;20430;-74
2021/12/05 15:52:54;;;;;;;3.08;2.13;;;6.70;99.90;;;;;;5012172;28;20029;-74
2021/12/05 15:55:57;;;;;;;6.72;2.28;;;6.70;99.90;;;;;;5028344;28;20026;-74
2021/12/05 15:58:32;;;;;;;6.07;2.00;;;6.60;99.90;;;;;;4986163;28;20077;-74
2021/12/05 16:00:59;;;;;;;7.13;2.28;;;6.40;99.90;;;;;;4986295;28;20038;-74
2021/12/05 16:03:41;;;;;;;4.30;2.10;;;6.40;99.90;;;;;;4986626;28;20033;-74
2021/12/05 16:06:07;;;;;;;6.00;1.77;;;6.30;99.90;;;;;;4987336;28;20073;-74
2021/12/05 16:08:33;;;;;;;8.48;2.30;;;6.30;99.90;;;;;;4988213;28;20142;-74
2021/12/05 16:11:00;;;;;;;4.18;1.92;;;6.30;99.90;;;;;;4989125;28;20034;-74
2021/12/05 16:13:34;;;;;;;5.43;2.40;;;6.30;99.90;;;;;;4987397;28;20076;-74
2021/12/05 16:16:24;;;;;;;4.55;2.20;;;6.30;99.90;;;;;;4987301;28;20189;-74
2021/12/05 16:18:54;;;;;;;3.72;2.00;;;6.30;99.90;;;;;;4981780;28;20035;-74
2021/12/05 16:21:21;;;;;;;6.75;2.38;;;6.30;99.90;;;;;;4977146;28;20026;-74
2021/12/05 16:23:48;;;;;;;9.90;2.95;;;6.20;99.90;;;;;;4986735;28;20031;-74
2021/12/05 16:26:19;;;;;;;6.70;2.50;;;6.20;99.90;;;;;;4986777;28;20110;-74
2021/12/05 16:28:51;;;;;;;5.95;2.90;;;6.10;99.90;;;;;;4987555;28;20035;-74
2021/12/05 16:31:25;;;;;;;12.88;3.05;;;6.10;99.90;;;;;;4987029;28;20121;-74
2021/12/05 16:33:59;;;;;;;10.10;2.70;;;6.00;99.90;;;;;;5006382;28;20068;-74
2021/12/05 16:36:52;;;;;;;9.55;3.53;;;5.90;99.90;;;;;;5009154;28;20117;-74
2021/12/05 16:39:19;;;;;;;9.73;4.07;;;5.80;99.90;;;;;;5028512;28;20154;-74
2021/12/05 16:41:49;;;;;;;5.38;2.30;;;5.80;99.90;;;;;;5029139;28;20026;-74
2021/12/05 16:44:19;;;;;;;3.95;1.45;;;5.80;99.90;;;;;;5026447;28;20172;-76
2021/12/05 16:46:46;;;;;;;5.10;1.70;;;5.70;99.90;;;;;;5019821;28;20041;-74
2021/12/05 16:49:16;;;;;;;24.05;14.52;;;5.70;99.90;;;;;;5019533;28;20061;-74
2021/12/05 16:51:52;;;;;;;20.33;9.77;;;5.60;99.90;;;;;;5028415;28;20022;-74
2021/12/05 16:54:51;;;;;;;11.07;5.50;;;5.50;99.90;;;;;;5009449;28;20040;-74
2021/12/05 16:57:43;;;;;;;21.75;10.55;;;5.50;99.90;;;;;;5024503;28;20056;-73
2021/12/05 17:00:17;;;;;;;37.63;19.77;;;5.50;99.90;;;;;;5028061;28;20021;-73
2021/12/05 17:02:51;;;;;;;23.50;13.57;;;5.50;99.90;;;;;;5024937;28;20022;-75
2021/12/05 17:05:26;;;;;;;14.88;8.02;;;5.50;99.90;;;;;;5027782;28;20551;-73
2021/12/05 17:08:22;;;;;;;18.25;12.35;;;5.40;99.90;;;;;;5027086;28;20037;-74
2021/12/05 17:10:53;;;;;;;20.38;13.40;;;5.40;99.90;;;;;;5028404;28;20037;-75
2021/12/05 17:13:37;;;;;;;19.13;14.02;;;5.30;99.90;;;;;;5023517;28;20029;-74
2021/12/05 17:16:12;;;;;;;14.90;10.50;;;5.30;99.90;;;;;;5021254;28;20029;-74
2021/12/05 17:18:58;;;;;;;12.15;8.35;;;5.20;99.90;;;;;;5025836;28;20025;-76
2021/12/05 17:21:23;;;;;;;11.60;9.02;;;5.20;99.90;;;;;;5017966;28;20083;-73
2021/12/05 17:23:56;;;;;;;16.40;11.55;;;5.20;99.90;;;;;;5026331;28;20495;-74
2021/12/05 17:26:27;;;;;;;21.15;16.50;;;5.20;99.90;;;;;;5026896;28;20025;-73
2021/12/05 17:29:02;;;;;;;15.65;10.02;;;5.10;99.90;;;;;;5009892;28;20033;-74
2021/12/05 17:31:35;;;;;;;12.63;8.07;;;5.10;99.90;;;;;;5026230;28;20033;-74
2021/12/05 17:34:05;;;;;;;10.90;7.40;;;5.00;99.90;;;;;;5007682;28;20072;-74
2021/12/05 17:36:37;;;;;;;8.30;4.90;;;4.90;99.90;;;;;;5023859;28;20321;-74
2021/12/05 17:39:21;;;;;;;7.72;5.15;;;4.90;99.90;;;;;;5025971;28;20487;-74
2021/12/05 17:41:51;;;;;;;12.38;5.20;;;4.80;99.90;;;;;;5038259;28;20021;-74
2021/12/05 17:44:19;;;;;;;8.65;3.70;;;4.80;99.90;;;;;;5025325;28;20367;-75
2021/12/05 17:46:48;;;;;;;6.10;3.60;;;4.70;99.90;;;;;;5008542;28;20098;-75
2021/12/05 17:49:15;;;;;;;8.30;5.10;;;4.70;99.90;;;;;;5025401;28;20034;-74
2021/12/05 17:51:42;;;;;;;7.40;4.10;;;4.60;99.90;;;;;;5007442;28;20037;-75
2021/12/05 17:54:12;;;;;;;12.15;5.22;;;4.70;99.90;;;;;;5007596;28;20032;-76
2021/12/05 17:56:51;;;;;;;6.72;3.63;;;4.60;99.90;;;;;;5025307;28;20033;-74
2021/12/05 17:59:28;;;;;;;4.75;2.80;;;4.60;99.90;;;;;;5025536;28;20028;-75
2021/12/05 18:04:43;;;;;;;9.70;4.22;;;4.60;99.90;;;;;;5026859;28;20493;-75
2021/12/05 18:07:11;;;;;;;7.28;4.15;;;4.60;99.90;;;;;;5024815;28;20033;-75
2021/12/05 18:09:37;;;;;;;11.30;4.38;;;4.50;99.90;;;;;;5025001;28;20107;-75
2021/12/05 18:12:06;;;;;;;7.50;4.03;;;4.50;99.90;;;;;;5025133;28;20053;-75
2021/12/05 18:14:32;;;;;;;8.77;4.60;;;4.50;99.90;;;;;;5024840;28;20028;-76
2021/12/05 18:16:58;;;;;;;7.28;5.57;;;4.50;99.90;;;;;;5021652;28;20030;-75
2021/12/05 18:19:24;;;;;;;15.13;11.45;;;4.50;99.90;;;;;;5023630;28;20022;-75
2021/12/05 18:21:50;;;;;;;17.38;14.02;;;4.60;99.90;;;;;;5024618;28;20038;-75
2021/12/05 18:24:19;;;;;;;15.27;10.63;;;4.60;99.90;;;;;;5028384;28;20048;-75
2021/12/05 18:26:47;;;;;;;18.60;10.23;;;4.70;99.90;;;;;;5029059;28;20029;-75
2021/12/05 18:29:15;;;;;;;9.48;4.10;;;4.70;99.90;;;;;;5029547;28;20029;-74
2021/12/05 18:31:41;;;;;;;5.57;4.15;;;4.80;99.90;;;;;;5029366;28;20099;-75
2021/12/05 18:34:23;;;;;;;11.15;6.65;;;4.80;99.90;;;;;;5027950;28;20041;-75
2021/12/05 18:36:50;;;;;;;16.27;8.55;;;4.70;99.90;;;;;;5028305;28;20562;-74
2021/12/05 18:39:22;;;;;;;14.30;10.32;;;4.80;99.90;;;;;;5028680;28;20018;-73
2021/12/05 18:41:49;;;;;;;13.13;10.00;;;4.80;99.90;;;;;;5028557;28;20021;-75
2021/12/05 18:44:19;;;;;;;9.50;7.18;;;4.90;99.90;;;;;;5029293;28;20554;-75
2021/12/05 18:46:46;;;;;;;12.15;8.07;;;4.90;99.90;;;;;;5028885;28;20033;-75
2021/12/05 18:49:12;;;;;;;14.13;9.80;;;4.90;99.90;;;;;;5028404;28;20049;-75
2021/12/05 18:51:38;;;;;;;13.07;8.82;;;4.90;99.90;;;;;;5029015;28;20025;-75
2021/12/05 18:54:05;;;;;;;21.98;13.25;;;4.90;99.90;;;;;;5027960;28;20032;-75